• Join FlightAware (Why Join?)
  • Login
  • US Flag 
10:17PM EDT


 

Airport Tracker/Info


-or-


 

Live Flight TrackerFlight Track Log ✈ UCA3596 ✈ 03-Oct-2013 ✈ KIAD - KBGM

Flight Track Log - Related Links

Times and Time Zones

All times are in EDT time to prevent confusion due to time zone crossing. See the UCA3596 flight status page for this flight to view local times or setup timezone preferences in your user account.

Time Position Orientation Groundspeed Altitude Reporting Facility
EDT Latitude Longitude Course Direction KTS MPH feet Rate Location/Type
01:09PM 39.6023 -77.1747 19° North  Level Estimated
01:10PM 39.6677 -77.1459 19° North  Level Estimated
01:11PM 39.7332 -77.1170 19° North  Level Estimated
01:12PM 39.7793 -77.0966 19° North  Level Estimated
01:13PM 39.8253 -77.0762 19° North  Level Estimated
01:14PM 39.8714 -77.0558 19° North  Level Estimated
01:15PM 39.9175 -77.0353 19° North  Level Estimated
01:16PM 39.9636 -77.0149 19° North  Level Estimated
01:17PM 40.0096 -76.9943 19° North  Level Estimated
01:18PM 40.0557 -76.9738 19° North  Level Estimated
01:19PM 40.1017 -76.9533 19° North  Level Estimated
01:20PM 40.1478 -76.9327 19° North  Level Estimated
01:21PM 40.1938 -76.9120 19° North  Level Estimated
01:22PM 40.2399 -76.8914 19° North  Level Estimated
01:23PM 40.2859 -76.8707 19° North  Level Estimated
01:24PM 40.3319 -76.8500 19° North  Level Estimated
01:25PM 40.3780 -76.8293 19° North  Level Estimated
01:26PM 40.4240 -76.8085 19° North  Level Estimated
01:27PM 40.4700 -76.7878 19° North  Level Estimated
01:28PM 40.5160 -76.7669 19° North  Level Estimated
01:29PM 40.5621 -76.7461 19° North  Level Estimated
01:30PM 40.6081 -76.7252 19° North  Level Estimated
01:31PM 40.6541 -76.7043 19° North  Level Estimated
01:32PM 40.7001 -76.6834 19° North  Level Estimated
01:33PM 40.7461 -76.6624 19° North  Level Estimated
01:34PM 40.7921 -76.6414 19° North  Level Estimated
01:35PM 40.8381 -76.6204 19° North  Level Estimated
01:36PM 40.8841 -76.5994 19° North  Level Estimated
01:37PM 40.9301 -76.5783 19° North  Level Estimated
01:38PM 40.9760 -76.5572 19° North  Level Estimated
01:39PM 41.0220 -76.5361 19° North  Level Estimated
01:40PM 41.0680 -76.5149 19° North  Level Estimated
01:41PM 41.1140 -76.4937 19° North  Level Estimated
01:42PM 41.1599 -76.4725 19° North  Level Estimated
01:43PM 41.2059 -76.4512 19° North  Level Estimated
01:44PM 41.2519 -76.4300 19° North  Level Estimated
01:45PM 41.2978 -76.4087 19° North  Level Estimated
01:46PM 41.3438 -76.3873 19° North  Level Estimated
01:47PM 41.3897 -76.3659 19° North  Level Estimated
01:48PM 41.4357 -76.3445 19° North  Level Estimated
01:49PM 41.4816 -76.3231 19° North  Level Estimated
01:50PM 41.5275 -76.3016 19° North  Level Estimated
01:51PM 41.5735 -76.2801 19° North  Level Estimated
01:52PM 41.6194 -76.2586 19° North  Level Estimated
01:53PM 41.6653 -76.2371 19° North  Level Estimated
01:54PM 41.7112 -76.2155 19° North  Level Estimated
01:55PM 41.7572 -76.1938 19° North  Level Estimated
01:56PM 41.8031 -76.1722 19° North  Level Estimated
01:57PM 41.8490 -76.1505 19° North  Level Estimated
01:58PM 41.8949 -76.1288 19° North  Level Estimated
01:59PM 41.9408 -76.1071 19° North  Level Estimated
02:00PM 41.9867 -76.0853 19° North  Level Estimated
02:01PM 42.0326 -76.0635 19° North  Level Estimated
02:02PM 42.0785 -76.0416 19° North  Level Estimated
02:03PM 42.1243 -76.0198 19° North  Level Estimated
02:04PM 42.1702 -75.9979 19° North  Level Estimated
02:05PM 42.2084 -75.9796 19° North  Level Estimated
02:06PM 42.2084 -75.9796 35° Northeast  Level Estimated
02:07PM 42.2084 -75.9796 35° Northeast  Level Estimated
02:08PM 42.2084 -75.9796 35° Northeast  Level Estimated
02:09PM 42.2084 -75.9796 35° Northeast  Level Estimated
02:10PM 42.2084 -75.9796 35° Northeast  Level Estimated
02:11PM 42.2084 -75.9796 35° Northeast  Level Estimated
02:12PM 42.2084 -75.9796 35° Northeast  Level Estimated
02:13PM 42.2084 -75.9796 35° Northeast  Level Estimated
02:14PM 42.2084 -75.9796 35° Northeast  Level Estimated
02:15PM 42.2084 -75.9796 35° Northeast  Level Estimated
02:16PM 42.2084 -75.9796 35° Northeast  Level Estimated
02:17PM 42.2084 -75.9796 35° Northeast  Level Estimated
02:18PM 42.2084 -75.9796 35° Northeast  Level Estimated
02:19PM 42.2084 -75.9796 35° Northeast  Level Estimated
02:20PM 42.2084 -75.9796 35° Northeast  Level Estimated
02:21PM 42.2084 -75.9796 35° Northeast  Level Estimated
02:22PM 42.2084 -75.9796 35° Northeast  Level Estimated
02:23PM 42.2084 -75.9796 35° Northeast  Level Estimated
02:24PM 42.2084 -75.9796 35° Northeast  Level Estimated
02:25PM 42.2084 -75.9796 35° Northeast  Level Estimated
02:26PM 42.2084 -75.9796 35° Northeast  Level Estimated